Time;durP1;ratioP1;P1;durP2;ratioP2;P2;SDS_P1;SDS_P2;PMS_P1;PMS_P2;Temp;Humidity;BMP_temperature;BMP_pressure;BME280_temperature;BME280_humidity;BME280_pressure;Samples;Min_cycle;Max_cycle;Signal;HPM_P1;HPM_P2
2023/05/17 00:01:42;;;;;;;9.93;7.13;;;;;;;14.10;100.00;63452.00;5046347;28;20214;-78
2023/05/17 00:04:09;;;;;;;11.27;7.95;;;;;;;13.91;100.00;63430.22;5047151;28;20198;-79
2023/05/17 00:06:39;;;;;;;12.73;6.80;;;;;;;13.76;100.00;63419.75;5047025;28;20222;-77
2023/05/17 00:09:07;;;;;;;14.35;7.07;;;;;;;13.75;100.00;63421.28;5046422;28;20217;-79
2023/05/17 00:11:36;;;;;;;10.90;7.35;;;;;;;13.73;100.00;63414.63;5045979;28;20565;-78
2023/05/17 00:14:04;;;;;;;13.13;8.98;;;;;;;13.62;100.00;63407.78;5045827;28;20381;-78
2023/05/17 00:16:32;;;;;;;11.82;7.40;;;;;;;13.57;100.00;63403.13;5046134;28;20412;-77
2023/05/17 00:18:59;;;;;;;9.45;7.57;;;;;;;13.53;100.00;63395.91;5046978;28;20217;-78
2023/05/17 00:21:26;;;;;;;9.77;6.95;;;;;;;13.48;100.00;63388.66;5046590;28;20222;-78
2023/05/17 00:23:54;;;;;;;17.83;7.93;;;;;;;13.52;100.00;63390.25;5046570;28;20202;-79
2023/05/17 00:26:21;;;;;;;10.52;7.50;;;;;;;13.47;100.00;63387.63;5046167;28;20428;-79
2023/05/17 00:28:50;;;;;;;14.73;7.50;;;;;;;13.43;100.00;63383.47;5046111;28;20419;-79
2023/05/17 00:31:17;;;;;;;11.07;6.95;;;;;;;13.39;100.00;63381.88;5046557;28;20213;-79
2023/05/17 00:33:45;;;;;;;15.05;7.25;;;;;;;13.38;100.00;63385.97;5048362;28;20194;-78
2023/05/17 00:36:13;;;;;;;10.13;6.22;;;;;;;13.38;100.00;63380.31;5046916;28;20202;-79
2023/05/17 00:38:40;;;;;;;17.55;5.63;;;;;;;13.38;100.00;63380.31;5045634;28;20206;-78
2023/05/17 00:41:08;;;;;;;9.95;6.47;;;;;;;13.34;100.00;63376.69;5045893;28;20253;-76
2023/05/17 00:43:35;;;;;;;13.75;6.82;;;;;;;13.28;100.00;63365.38;5046237;28;20434;-78
2023/05/17 00:46:04;;;;;;;11.38;6.50;;;;;;;13.28;100.00;63372.50;5046910;28;20229;-79
2023/05/17 00:48:31;;;;;;;7.13;6.38;;;;;;;13.09;100.00;63350.78;5046416;28;20240;-78
2023/05/17 00:50:59;;;;;;;10.00;5.60;;;;;;;13.07;100.00;63348.69;5045947;28;20410;-80
2023/05/17 00:53:28;;;;;;;10.85;5.78;;;;;;;13.11;100.00;63352.84;5045641;28;20198;-78
2023/05/17 00:55:55;;;;;;;7.57;5.25;;;;;;;13.13;100.00;63357.47;5047766;28;20202;-79
2023/05/17 00:58:24;;;;;;;13.05;6.25;;;;;;;13.17;100.00;63358.53;5045666;28;20218;-79
2023/05/17 01:00:51;;;;;;;16.10;6.38;;;;;;;13.16;100.00;63355.47;5048021;28;20348;-78
2023/05/17 01:03:21;;;;;;;14.45;6.57;;;;;;;13.13;100.00;63352.34;5047671;28;20217;-78
2023/05/17 01:05:49;;;;;;;13.20;6.28;;;;;;;13.08;100.00;63349.22;5046196;28;20206;-77
2023/05/17 01:08:17;;;;;;;12.00;5.90;;;;;;;13.02;100.00;63342.97;5045868;28;20274;-78
2023/05/17 01:10:50;;;;;;;12.98;6.45;;;;;;;13.08;100.00;63349.22;5046812;28;20230;-79
2023/05/17 01:13:24;;;;;;;9.70;6.20;;;;;;;13.12;100.00;63353.34;5047361;28;20214;-79
2023/05/17 01:16:00;;;;;;;11.18;7.05;;;;;;;12.98;100.00;63339.34;5045726;28;20212;-78
2023/05/17 01:18:39;;;;;;;14.35;7.05;;;;;;;13.01;100.00;63339.88;5047061;28;20475;-78
2023/05/17 01:21:17;;;;;;;13.30;5.60;;;;;;;12.99;100.00;63342.41;5045485;28;20209;-77
2023/05/17 01:23:55;;;;;;;10.63;5.03;;;;;;;12.98;100.00;63341.88;5045979;28;20186;-79
2023/05/17 01:26:37;;;;;;;12.50;5.43;;;;;;;12.94;100.00;63337.75;5045422;28;20233;-78
2023/05/17 01:29:08;;;;;;;8.23;5.38;;;;;;;12.89;100.00;63332.53;5045223;28;20222;-78
2023/05/17 01:31:37;;;;;;;10.23;5.65;;;;;;;12.73;100.00;63313.41;5046013;28;20427;-79
2023/05/17 01:34:09;;;;;;;8.07;4.95;;;;;;;12.79;100.00;63322.69;5048898;28;20198;-78
2023/05/17 01:36:37;;;;;;;15.65;4.60;;;;;;;12.65;100.00;63305.63;5049415;28;20224;-78
2023/05/17 01:39:04;;;;;;;5.55;5.05;;;;;;;12.73;100.00;63313.41;5048262;28;20273;-78
2023/05/17 01:41:41;;;;;;;6.95;5.22;;;;;;;12.62;100.00;63307.63;5047168;28;20231;-78
2023/05/17 01:44:15;;;;;;;10.88;5.30;;;;;;;12.52;100.00;63294.72;5029712;28;20397;-78
2023/05/17 01:46:43;;;;;;;10.63;5.05;;;;;;;12.45;100.00;63279.25;5029053;28;20217;-78
2023/05/17 01:49:16;;;;;;;9.10;4.97;;;;;;;12.43;100.00;63279.75;5040699;28;20430;-78
2023/05/17 01:51:48;;;;;;;11.52;6.03;;;;;;;12.42;100.00;63281.78;5048150;28;20448;-78
2023/05/17 01:54:22;;;;;;;16.08;6.80;;;;;;;12.40;100.00;63281.75;5048241;28;20233;-79
2023/05/17 01:56:58;;;;;;;14.85;5.68;;;;;;;12.43;100.00;63282.81;5048787;28;20228;-78
2023/05/17 01:59:27;;;;;;;15.60;7.90;;;;;;;12.39;100.00;63275.59;5050461;28;20261;-78
2023/05/17 02:02:02;;;;;;;11.10;7.00;;;;;;;12.43;100.00;63282.81;5048066;28;20240;-79
2023/05/17 02:04:30;;;;;;;15.07;8.05;;;;;;;12.44;100.00;63280.78;5048041;28;20212;-78
2023/05/17 02:06:57;;;;;;;14.93;8.20;;;;;;;12.44;100.00;63281.28;5049153;28;20217;-78
2023/05/17 02:09:25;;;;;;;23.50;9.23;;;;;;;12.43;100.00;63282.28;5047388;28;20598;-78
2023/05/17 02:11:54;;;;;;;17.45;8.68;;;;;;;12.36;100.00;63275.56;5048275;28;20217;-78
2023/05/17 02:14:21;;;;;;;20.20;10.43;;;;;;;12.34;100.00;63272.97;5049407;28;20197;-78
2023/05/17 02:16:48;;;;;;;15.25;9.13;;;;;;;12.32;100.00;63271.41;5048705;28;20226;-78
2023/05/17 02:19:15;;;;;;;18.38;9.55;;;;;;;12.30;100.00;63263.72;5048268;28;20261;-78
2023/05/17 02:21:42;;;;;;;13.10;9.13;;;;;;;12.28;100.00;63266.75;5046765;28;20228;-78
2023/05/17 02:24:09;;;;;;;16.58;8.50;;;;;;;12.15;100.00;63250.72;5044831;28;20202;-79
2023/05/17 02:26:37;;;;;;;11.10;7.70;;;;;;;12.15;100.00;63253.78;5048043;28;20248;-77
2023/05/17 02:29:05;;;;;;;11.70;7.88;;;;;;;12.14;100.00;63254.78;5047750;28;20297;-77
2023/05/17 02:31:32;;;;;;;20.08;8.27;;;;;;;12.06;100.00;63244.47;5031339;28;20214;-79
2023/05/17 02:33:59;;;;;;;10.80;7.15;;;;;;;12.26;100.00;63265.19;5029107;28;20199;-78
2023/05/17 02:36:27;;;;;;;14.57;6.25;;;;;;;12.25;100.00;63261.59;5027180;28;20226;-78
2023/05/17 02:38:54;;;;;;;8.57;6.85;;;;;;;12.24;100.00;63263.13;5027929;28;20206;-77
2023/05/17 02:41:21;;;;;;;15.90;7.25;;;;;;;12.22;100.00;63261.03;5028748;28;20289;-78
2023/05/17 02:43:48;;;;;;;11.52;6.55;;;;;;;12.19;100.00;63257.94;5027398;28;20194;-78
2023/05/17 02:46:17;;;;;;;10.13;6.05;;;;;;;12.13;100.00;63249.16;5027611;28;20254;-78
2023/05/17 02:48:44;;;;;;;9.02;5.43;;;;;;;12.10;100.00;63246.06;5029046;28;20238;-80
2023/05/17 02:51:12;;;;;;;7.97;6.38;;;;;;;12.13;100.00;63251.72;5027942;28;20262;-78
2023/05/17 02:53:40;;;;;;;11.07;6.93;;;;;;;12.08;100.00;63246.53;5029259;28;20191;-77
2023/05/17 02:56:08;;;;;;;10.85;6.28;;;;;;;12.08;100.00;63249.09;5030098;28;20206;-80
2023/05/17 02:58:35;;;;;;;9.82;6.07;;;;;;;12.07;100.00;63244.97;5027460;28;20198;-78
2023/05/17 03:01:03;;;;;;;11.25;5.68;;;;;;;12.05;100.00;63243.44;5028248;28;20415;-77
2023/05/17 03:03:32;;;;;;;12.90;5.68;;;;;;;12.09;100.00;63247.59;5027353;28;20218;-78
2023/05/17 03:06:01;;;;;;;8.35;5.82;;;;;;;12.09;100.00;63249.59;5029274;28;20198;-78
2023/05/17 03:08:28;;;;;;;10.10;5.40;;;;;;;12.03;100.00;63243.41;5027420;28;20203;-79
2023/05/17 03:10:56;;;;;;;8.65;6.10;;;;;;;12.07;100.00;63247.53;5028370;28;20230;-78
2023/05/17 03:13:23;;;;;;;18.10;6.47;;;;;;;12.03;100.00;63241.34;5027002;28;20317;-78
2023/05/17 03:15:50;;;;;;;9.10;6.70;;;;;;;12.00;100.00;63238.25;5028682;28;20298;-78
2023/05/17 03:18:17;;;;;;;12.65;6.30;;;;;;;12.02;100.00;63240.31;5026542;28;20215;-77
2023/05/17 03:20:46;;;;;;;11.02;6.20;;;;;;;12.00;100.00;63237.72;5027138;28;20491;-79
2023/05/17 03:23:13;;;;;;;8.02;6.22;;;;;;;12.04;100.00;63239.84;5028624;28;20238;-79
2023/05/17 03:25:40;;;;;;;13.90;8.07;;;;;;;12.09;100.00;63247.06;5027149;28;20226;-78
2023/05/17 03:28:07;;;;;;;14.98;8.85;;;;;;;12.10;100.00;63250.63;5027246;28;20224;-78
2023/05/17 03:30:34;;;;;;;17.40;9.45;;;;;;;12.09;100.00;63244.50;5028385;28;20274;-78
2023/05/17 03:33:02;;;;;;;20.30;9.23;;;;;;;12.09;100.00;63247.59;5027125;28;20218;-77
2023/05/17 03:35:29;;;;;;;15.68;9.40;;;;;;;12.11;100.00;63249.13;5026665;28;20198;-78
2023/05/17 03:37:57;;;;;;;15.57;9.63;;;;;;;12.22;100.00;63263.59;5028152;28;20215;-78
2023/05/17 03:40:24;;;;;;;16.70;9.85;;;;;;;12.23;100.00;63257.00;5026473;28;20238;-78
2023/05/17 03:42:52;;;;;;;18.08;10.25;;;;;;;12.21;100.00;63260.03;5027483;28;20219;-78
2023/05/17 03:45:20;;;;;;;21.20;10.90;;;;;;;12.15;100.00;63245.63;5026931;28;20190;-78
2023/05/17 03:47:47;;;;;;;28.20;11.63;;;;;;;12.12;100.00;63250.69;5026351;28;20285;-78
2023/05/17 03:50:14;;;;;;;17.08;10.65;;;;;;;12.20;100.00;63250.81;5026403;28;20229;-78
2023/05/17 03:52:42;;;;;;;21.05;11.50;;;;;;;12.24;100.00;63260.56;5026714;28;20223;-78
2023/05/17 03:55:11;;;;;;;15.40;10.82;;;;;;;12.19;100.00;63254.88;5026465;28;20203;-78
2023/05/17 03:57:38;;;;;;;14.98;10.73;;;;;;;12.18;100.00;63258.94;5027194;28;20269;-79
2023/05/17 04:00:10;;;;;;;13.43;9.57;;;;;;;12.18;100.00;63256.91;5026032;28;20208;-78
2023/05/17 04:02:37;;;;;;;15.65;9.43;;;;;;;12.22;100.00;63258.50;5027428;28;20234;-78
2023/05/17 04:05:05;;;;;;;16.70;10.00;;;;;;;12.31;100.00;63272.94;5026881;28;20230;-78
2023/05/17 04:07:32;;;;;;;22.50;10.43;;;;;;;12.37;100.00;63279.13;5026426;28;20218;-77
2023/05/17 04:10:01;;;;;;;15.30;10.05;;;;;;;12.46;100.00;63285.41;5026032;28;20241;-77
2023/05/17 04:12:30;;;;;;;16.35;11.18;;;;;;;12.50;100.00;63287.53;5026829;28;20214;-77
2023/05/17 04:14:57;;;;;;;21.98;11.68;;;;;;;12.67;100.00;63305.16;5027568;28;20325;-78
2023/05/17 04:17:24;;;;;;;19.48;13.15;;;;;;;12.87;100.00;63324.84;5025116;28;20222;-78
2023/05/17 04:19:51;;;;;;;18.55;12.27;;;;;;;13.03;100.00;63344.03;5026179;28;20414;-78
2023/05/17 04:22:18;;;;;;;13.32;10.77;;;;;;;13.25;100.00;63364.81;5027058;28;20241;-78
2023/05/17 04:24:46;;;;;;;15.90;9.88;;;;;;;13.42;100.00;63381.94;5025598;28;20229;-77
2023/05/17 04:27:13;;;;;;;13.20;10.40;;;;;;;13.52;100.00;63394.84;5026350;28;20242;-78
2023/05/17 04:29:41;;;;;;;16.45;9.52;;;;;;;13.58;100.00;63398.53;5025212;28;20554;-77
2023/05/17 04:32:09;;;;;;;16.10;8.90;;;;;;;13.61;100.00;63402.16;5026781;28;20238;-81
2023/05/17 04:34:37;;;;;;;16.92;8.65;;;;;;;13.76;100.00;63417.72;5027074;28;20391;-79
2023/05/17 04:37:04;;;;;;;11.75;7.45;;;;;;;13.93;100.00;63434.34;5026124;28;20218;-79
2023/05/17 04:39:31;;;;;;;18.35;9.07;;;;;;;14.02;100.00;63446.22;5026181;28;20270;-80
2023/05/17 04:41:58;;;;;;;18.23;10.23;;;;;;;14.19;100.00;63464.41;5025975;28;20214;-79
2023/05/17 04:44:25;;;;;;;18.92;10.35;;;;;;;14.33;100.00;63476.41;5025408;28;20455;-78
2023/05/17 04:46:54;;;;;;;19.95;12.80;;;;;;;14.51;100.00;63500.22;5026626;28;20261;-80
2023/05/17 04:49:23;;;;;;;17.98;11.35;;;;;;;14.72;100.00;63519.47;5027103;28;20199;-80
2023/05/17 04:51:50;;;;;;;13.05;11.05;;;;;;;14.91;100.00;63538.69;5027983;28;20307;-80
2023/05/17 04:54:18;;;;;;;21.15;11.45;;;;;;;15.08;100.00;63556.88;5026247;28;20202;-81
2023/05/17 04:56:45;;;;;;;16.15;11.10;;;;;;;15.15;100.00;63566.19;5026079;28;20433;-79
2023/05/17 04:59:12;;;;;;;18.02;12.00;;;;;;;15.23;100.00;63569.38;5026804;28;20199;-80
2023/05/17 05:01:39;;;;;;;16.95;11.88;;;;;;;15.25;100.00;63574.03;5025933;28;20225;-80
2023/05/17 05:04:08;;;;;;;19.27;12.00;;;;;;;15.30;100.00;63576.66;5026080;28;20204;-80
2023/05/17 05:06:35;;;;;;;16.70;11.02;;;;;;;15.38;100.00;63584.97;5025667;28;20218;-79
2023/05/17 05:09:03;;;;;;;17.52;11.18;;;;;;;15.39;100.00;63588.06;5028586;28;20241;-78
2023/05/17 05:11:30;;;;;;;17.75;11.93;;;;;;;15.45;100.00;63594.81;5030179;28;20238;-79
2023/05/17 05:13:57;;;;;;;15.05;12.10;;;;;;;15.62;100.00;63607.38;5031268;28;20198;-78
2023/05/17 05:16:25;;;;;;;18.30;11.70;;;;;;;15.77;100.00;63627.59;5030151;28;20214;-78
2023/05/17 05:18:51;;;;;;;16.25;11.30;;;;;;;15.89;100.00;63640.06;5030048;28;20478;-78
2023/05/17 05:21:20;;;;;;;15.73;12.00;;;;;;;16.03;100.00;63657.69;5029642;28;20198;-79
2023/05/17 05:23:47;;;;;;;15.57;11.90;;;;;;;16.17;100.00;63669.69;5029578;28;20205;-79
2023/05/17 05:26:14;;;;;;;15.60;10.68;;;;;;;16.38;100.00;63690.47;5030241;28;20206;-78
2023/05/17 05:28:41;;;;;;;18.20;10.90;;;;;;;16.42;100.00;63694.66;5029618;28;20198;-78
2023/05/17 05:31:09;;;;;;;14.25;11.63;;;;;;;16.65;100.00;63723.75;5032675;28;20233;-79
2023/05/17 05:33:37;;;;;;;17.45;12.55;;;;;;;16.74;100.00;63725.41;5029523;28;20198;-78
2023/05/17 05:36:06;;;;;;;17.48;10.75;;;;;;;16.87;100.00;63741.50;5033718;28;20221;-80
2023/05/17 05:38:35;;;;;;;19.88;11.50;;;;;;;17.09;100.00;63764.38;5030697;28;20194;-77
2023/05/17 05:41:02;;;;;;;14.38;10.05;;;;;;;17.09;100.00;63766.97;5030116;28;20198;-80
2023/05/17 05:43:29;;;;;;;13.82;11.00;;;;;;;17.23;100.00;63776.91;5029537;28;20205;-79
2023/05/17 05:45:56;;;;;;;12.27;9.85;;;;;;;17.16;100.00;63769.63;5030192;28;20277;-78
2023/05/17 05:48:24;;;;;;;10.25;8.38;;;;;;;17.32;100.00;63793.50;5028701;28;20236;-79
2023/05/17 05:50:51;;;;;;;16.88;8.77;;;;;;;17.50;99.76;63804.00;5029224;28;20242;-78
2023/05/17 05:53:18;;;;;;;19.05;8.95;;;;;;;17.77;99.61;63837.78;5029156;28;20240;-78
2023/05/17 05:55:48;;;;;;;16.25;8.70;;;;;;;17.86;97.59;63844.56;5029101;28;20249;-79
2023/05/17 05:58:15;;;;;;;9.10;7.97;;;;;;;18.04;96.34;63868.50;5030722;28;20214;-78
2023/05/17 06:00:42;;;;;;;15.50;7.65;;;;;;;18.22;93.31;63884.16;5029142;28;20258;-79
2023/05/17 06:03:09;;;;;;;10.95;8.15;;;;;;;18.34;95.04;63894.06;5029885;28;20218;-79
2023/05/17 06:05:37;;;;;;;10.93;8.25;;;;;;;18.41;92.79;63901.91;5029520;28;20194;-78
2023/05/17 06:08:05;;;;;;;11.68;8.75;;;;;;;18.29;94.25;63886.78;5029644;28;20205;-79
2023/05/17 06:10:32;;;;;;;13.40;9.63;;;;;;;18.39;93.43;63902.38;5029580;28;20239;-79
2023/05/17 06:13:01;;;;;;;14.77;9.15;;;;;;;18.00;93.87;63856.06;5031909;28;20551;-79
2023/05/17 06:15:31;;;;;;;16.00;8.73;;;;;;;18.29;96.05;63886.78;5028286;28;20202;-79
2023/05/17 06:17:58;;;;;;;15.30;9.23;;;;;;;18.48;95.24;63905.56;5030287;28;20265;-78
2023/05/17 06:20:25;;;;;;;12.75;8.77;;;;;;;18.82;93.50;63948.75;5030033;28;20245;-79
2023/05/17 06:22:52;;;;;;;12.00;7.90;;;;;;;19.01;89.34;63966.50;5029396;28;20538;-78
2023/05/17 06:25:19;;;;;;;12.15;8.55;;;;;;;19.22;88.87;63982.72;5029719;28;20269;-78
2023/05/17 06:27:47;;;;;;;20.15;8.85;;;;;;;19.08;85.88;63970.69;5029019;28;20214;-79
2023/05/17 06:30:16;;;;;;;14.63;8.80;;;;;;;18.49;89.05;63904.03;5029192;28;20248;-78
2023/05/17 06:32:43;;;;;;;20.00;9.20;;;;;;;18.14;91.13;63870.66;5029941;28;20225;-79
2023/05/17 06:35:11;;;;;;;14.23;8.80;;;;;;;18.51;92.84;63913.84;5029433;28;20217;-79
2023/05/17 06:37:38;;;;;;;13.13;7.90;;;;;;;18.73;91.23;63931.63;5030415;28;20217;-80
2023/05/17 06:40:07;;;;;;;11.15;8.40;;;;;;;18.76;89.08;63937.34;5029151;28;20202;-79
2023/05/17 06:42:34;;;;;;;12.43;7.75;;;;;;;18.77;89.37;63938.38;5028433;28;20313;-78
2023/05/17 06:45:01;;;;;;;13.05;8.88;;;;;;;18.49;91.21;63909.19;5027749;28;20202;-79
2023/05/17 06:47:30;;;;;;;11.68;7.43;;;;;;;18.76;91.13;63937.34;5029727;28;20234;-79
2023/05/17 06:49:58;;;;;;;12.52;7.63;;;;;;;18.88;89.28;63947.78;5027994;28;20200;-78
2023/05/17 06:52:25;;;;;;;12.07;7.28;;;;;;;19.06;90.49;63969.13;5031343;28;20234;-79
2023/05/17 06:54:52;;;;;;;12.77;8.73;;;;;;;19.15;88.77;63973.34;5029010;28;20202;-79
2023/05/17 06:57:19;;;;;;;11.63;7.55;;;;;;;19.26;87.07;63989.97;5028509;28;20268;-78
2023/05/17 06:59:47;;;;;;;14.45;8.02;;;;;;;19.33;88.56;63997.31;5028117;28;20209;-79
2023/05/17 07:02:14;;;;;;;14.40;7.13;;;;;;;19.44;87.01;64008.78;5028578;28;20249;-80
2023/05/17 07:04:43;;;;;;;11.00;8.18;;;;;;;19.64;85.26;64026.50;5028358;28;20202;-79
2023/05/17 07:07:10;;;;;;;10.82;7.97;;;;;;;19.67;87.21;64029.66;5029063;28;20411;-78
2023/05/17 07:09:38;;;;;;;20.45;8.73;;;;;;;19.81;86.56;64049.41;5028650;28;20198;-79
2023/05/17 07:12:07;;;;;;;17.40;8.35;;;;;;;19.77;85.46;64045.25;5028066;28;20233;-79
2023/05/17 07:14:34;;;;;;;12.18;8.25;;;;;;;19.80;83.81;64045.28;5028002;28;20198;-80
2023/05/17 07:17:01;;;;;;;10.02;6.72;;;;;;;19.57;83.75;64016.13;5029221;28;20223;-79
2023/05/17 07:19:28;;;;;;;8.73;6.40;;;;;;;19.76;82.83;64041.13;5029453;28;20198;-79
2023/05/17 07:21:57;;;;;;;10.45;6.07;;;;;;;19.97;81.80;64063.53;5029183;28;20245;-80
2023/05/17 07:24:24;;;;;;;10.18;6.43;;;;;;;20.16;79.90;64085.97;5028929;28;20210;-79
2023/05/17 07:26:51;;;;;;;9.68;6.32;;;;;;;20.28;77.83;64093.31;5028551;28;20214;-79
2023/05/17 07:29:18;;;;;;;13.50;6.50;;;;;;;20.38;77.50;64103.25;5028434;28;20200;-80
2023/05/17 07:31:45;;;;;;;9.40;6.70;;;;;;;20.58;76.08;64126.69;5028026;28;20297;-79
2023/05/17 07:34:14;;;;;;;6.60;5.85;;;;;;;20.55;75.50;64120.97;5028735;28;20229;-80
2023/05/17 07:36:41;;;;;;;9.57;7.05;;;;;;;20.79;76.12;64145.50;5028920;28;20451;-79
2023/05/17 07:39:09;;;;;;;12.52;8.70;;;;;;;20.75;77.76;64144.44;5027798;28;20194;-78
2023/05/17 07:41:37;;;;;;;13.45;8.85;;;;;;;21.08;78.40;64178.91;5030162;28;20236;-79
2023/05/17 07:44:04;;;;;;;13.02;7.72;;;;;;;20.86;76.51;64155.94;5027996;28;20260;-79
2023/05/17 07:46:31;;;;;;;11.32;8.10;;;;;;;21.01;75.50;64173.66;5028307;28;20226;-79
2023/05/17 07:48:59;;;;;;;11.13;8.02;;;;;;;21.17;75.18;64192.97;5029158;28;20198;-78
2023/05/17 07:51:26;;;;;;;12.52;8.35;;;;;;;21.17;73.61;64190.91;5028881;28;20353;-78
2023/05/17 07:53:53;;;;;;;15.07;9.05;;;;;;;20.91;76.06;64163.72;5027224;28;20429;-79
2023/05/17 07:56:22;;;;;;;13.45;9.18;;;;;;;20.62;77.45;64131.38;5028117;28;20218;-79
2023/05/17 07:58:49;;;;;;;13.90;9.30;;;;;;;20.60;76.95;64131.38;5027925;28;20194;-78
2023/05/17 08:01:16;;;;;;;11.38;9.18;;;;;;;20.15;78.89;64082.31;5028139;28;20226;-79
2023/05/17 08:03:46;;;;;;;17.05;9.23;;;;;;;20.09;81.00;64078.09;5027762;28;20265;-81
2023/05/17 08:06:14;;;;;;;12.75;8.60;;;;;;;20.23;82.23;64090.69;5028112;28;20248;-78
2023/05/17 08:08:42;;;;;;;12.15;8.35;;;;;;;20.41;78.77;64108.94;5029179;28;20198;-79
2023/05/17 08:11:10;;;;;;;16.67;8.63;;;;;;;20.14;81.32;64083.84;5048743;28;20236;-80
2023/05/17 08:13:38;;;;;;;14.10;8.60;;;;;;;20.41;80.61;64106.88;5047272;28;20194;-78
2023/05/17 08:16:08;;;;;;;12.60;8.07;;;;;;;20.54;76.75;64119.91;5046417;28;20193;-78
2023/05/17 08:18:37;;;;;;;14.98;8.60;;;;;;;20.83;76.51;64154.84;5046566;28;20201;-79
2023/05/17 08:21:04;;;;;;;19.15;8.63;;;;;;;21.13;73.72;64181.53;5046322;28;20202;-78
2023/05/17 08:23:31;;;;;;;9.65;7.15;;;;;;;20.93;77.17;64165.81;5047444;28;20197;-78
2023/05/17 08:25:58;;;;;;;9.65;7.22;;;;;;;21.06;76.44;64174.22;5046842;28;20228;-78
2023/05/17 08:28:25;;;;;;;15.63;8.80;;;;;;;21.26;74.69;64197.69;5040150;28;20227;-79
2023/05/17 08:30:55;;;;;;;11.80;7.90;;;;;;;21.41;72.96;64215.44;5048082;28;20235;-82
2023/05/17 08:33:24;;;;;;;10.63;7.88;;;;;;;21.45;73.10;64217.03;5047950;28;20213;-80
2023/05/17 08:35:54;;;;;;;14.82;7.80;;;;;;;21.34;71.33;64211.25;5046336;28;20204;-79
2023/05/17 08:38:23;;;;;;;10.32;7.55;;;;;;;21.60;71.66;64235.81;5049405;28;20236;-80
2023/05/17 08:43:58;;;;;;;14.70;7.53;;;;;;;22.02;68.39;64276.59;5052483;28;20201;-79
2023/05/17 08:46:30;;;;;;;11.68;7.55;;;;;;;22.03;67.05;64275.06;5052689;28;20217;-79
2023/05/17 08:49:00;;;;;;;12.82;7.28;;;;;;;22.19;66.96;64299.03;5051857;28;20197;-78
2023/05/17 08:51:29;;;;;;;12.73;7.40;;;;;;;22.41;65.88;64322.03;5053624;28;20232;-80
2023/05/17 08:53:56;;;;;;;9.85;6.43;;;;;;;22.42;63.72;64318.41;5052063;28;20198;-79
2023/05/17 08:56:27;;;;;;;9.88;7.20;;;;;;;22.24;64.68;64299.06;5051866;28;20221;-80
2023/05/17 08:58:56;;;;;;;10.32;6.85;;;;;;;22.38;64.10;64313.72;5051306;28;20185;-79
2023/05/17 09:01:24;;;;;;;16.08;8.57;;;;;;;22.45;63.33;64318.94;5051316;28;20609;-81
2023/05/17 09:03:53;;;;;;;9.93;7.80;;;;;;;22.61;63.58;64340.34;5052335;28;20256;-79
2023/05/17 09:06:22;;;;;;;13.63;9.35;;;;;;;22.47;64.27;64320.50;5052841;28;20217;-79
2023/05/17 09:08:53;;;;;;;13.65;8.23;;;;;;;22.54;65.08;64335.63;5051215;28;20399;-80
2023/05/17 09:11:27;;;;;;;11.20;7.07;;;;;;;22.35;64.25;64308.50;5050870;28;20233;-80
2023/05/17 09:13:54;;;;;;;10.70;7.05;;;;;;;22.27;64.35;64299.59;5050449;28;20193;-78
2023/05/17 09:16:21;;;;;;;8.57;7.57;;;;;;;22.21;64.09;64295.94;5050596;28;20222;-80
2023/05/17 09:18:55;;;;;;;10.32;6.68;;;;;;;21.85;63.12;64258.31;5051630;28;20236;-79
2023/05/17 09:21:22;;;;;;;13.52;6.82;;;;;;;22.09;64.91;64286.00;5050565;28;20216;-78
2023/05/17 09:23:52;;;;;;;11.80;6.70;;;;;;;21.83;64.57;64259.34;5050721;28;20224;-79
2023/05/17 09:26:19;;;;;;;14.85;6.60;;;;;;;21.65;65.12;64235.31;5050902;28;20198;-79
2023/05/17 09:28:47;;;;;;;13.00;6.75;;;;;;;22.00;64.57;64276.59;5051584;28;20204;-79
2023/05/17 09:31:17;;;;;;;14.68;6.95;;;;;;;22.07;64.03;64278.72;5050469;28;20229;-79
2023/05/17 09:33:45;;;;;;;12.48;6.50;;;;;;;22.24;63.43;64297.00;5049662;28;20249;-79
2023/05/17 09:36:18;;;;;;;10.50;6.82;;;;;;;22.41;62.12;64314.78;5049674;28;20197;-79
2023/05/17 09:38:54;;;;;;;9.43;5.88;;;;;;;22.36;60.82;64314.22;5049577;28;20421;-78
2023/05/17 09:41:22;;;;;;;12.38;6.90;;;;;;;22.19;62.71;64294.38;5049438;28;20212;-78
2023/05/17 09:43:50;;;;;;;9.68;7.20;;;;;;;22.51;60.96;64325.22;5051573;28;20204;-80
2023/05/17 09:46:19;;;;;;;7.97;6.82;;;;;;;22.58;61.92;64332.56;5051103;28;20198;-78
2023/05/17 09:48:53;;;;;;;8.43;6.00;;;;;;;22.47;60.65;64323.63;5051380;28;20264;-79
2023/05/17 09:51:32;;;;;;;12.55;6.28;;;;;;;22.16;63.79;64288.63;5049906;28;20237;-78
2023/05/17 09:54:00;;;;;;;10.73;5.50;;;;;;;21.89;68.53;64265.59;5049105;28;20232;-79
2023/05/17 09:56:31;;;;;;;13.20;7.03;;;;;;;21.87;65.45;64258.34;5049936;28;20224;-79
2023/05/17 09:59:00;;;;;;;15.88;7.95;;;;;;;21.94;67.06;64270.31;5051466;28;20197;-78
2023/05/17 10:01:29;;;;;;;10.45;5.82;;;;;;;22.12;64.36;64286.53;5050894;28;20618;-78
2023/05/17 10:04:00;;;;;;;11.80;6.55;;;;;;;21.80;65.88;64251.00;5048988;28;20190;-78
2023/05/17 10:06:30;;;;;;;12.70;6.85;;;;;;;21.75;66.92;64245.78;5048418;28;20224;-79
2023/05/17 10:08:59;;;;;;;11.30;6.93;;;;;;;22.15;65.80;64287.06;5050646;28;20256;-78
2023/05/17 10:11:32;;;;;;;11.68;6.28;;;;;;;22.12;65.44;64289.66;5050805;28;20233;-78
2023/05/17 10:14:07;;;;;;;13.73;6.07;;;;;;;22.08;65.03;64280.28;5051404;28;20265;-78
2023/05/17 10:16:35;;;;;;;12.00;6.15;;;;;;;22.11;63.70;64286.00;5049385;28;20221;-79
2023/05/17 10:19:03;;;;;;;10.43;6.32;;;;;;;22.05;62.95;64281.81;5049120;28;20201;-78
2023/05/17 10:21:32;;;;;;;11.45;7.28;;;;;;;22.01;62.42;64277.63;5049160;28;20221;-79
2023/05/17 10:24:02;;;;;;;10.30;6.10;;;;;;;21.99;63.32;64275.53;5052157;28;20293;-79
2023/05/17 10:26:30;;;;;;;6.93;5.70;;;;;;;21.61;67.12;64231.69;5050420;28;20241;-78
2023/05/17 10:29:00;;;;;;;15.15;6.50;;;;;;;21.49;64.18;64224.31;5049731;28;20197;-79
2023/05/17 10:31:31;;;;;;;11.68;5.93;;;;;;;20.97;66.52;64170.00;5049044;28;20224;-79
2023/05/17 10:34:01;;;;;;;9.73;5.88;;;;;;;20.73;68.23;64141.81;5048762;28;20194;-79
2023/05/17 10:36:29;;;;;;;10.35;6.07;;;;;;;20.53;71.61;64122.00;5048077;28;20404;-78
2023/05/17 10:38:58;;;;;;;7.47;5.85;;;;;;;20.62;70.52;64131.38;5048765;28;20226;-80
2023/05/17 10:41:30;;;;;;;9.70;6.10;;;;;;;20.85;70.85;64156.94;5049397;28;20296;-80
2023/05/17 10:43:58;;;;;;;8.68;6.10;;;;;;;20.98;69.78;64168.47;5049340;28;20228;-80
2023/05/17 10:46:25;;;;;;;9.32;6.05;;;;;;;21.21;67.91;64189.38;5047798;28;20217;-78
2023/05/17 10:48:54;;;;;;;13.27;6.47;;;;;;;21.42;67.10;64213.88;5048075;28;20249;-78
2023/05/17 10:51:24;;;;;;;8.77;6.20;;;;;;;21.58;64.79;64231.13;5048458;28;20236;-79
2023/05/17 10:54:09;;;;;;;11.30;5.80;;;;;;;21.62;63.60;64232.19;5048580;28;20226;-78
2023/05/17 10:56:41;;;;;;;10.05;6.70;;;;;;;21.40;65.16;64214.91;5049302;28;20232;-79
2023/05/17 10:59:16;;;;;;;14.13;6.82;;;;;;;21.59;64.19;64237.34;5047958;28;20198;-78
2023/05/17 11:01:54;;;;;;;10.15;6.72;;;;;;;21.74;64.26;64250.44;5048644;28;20224;-78
2023/05/17 11:04:24;;;;;;;11.02;5.85;;;;;;;21.74;64.10;64247.84;5048070;28;20470;-77
2023/05/17 11:06:52;;;;;;;6.03;5.15;;;;;;;21.68;65.30;64246.75;5047384;28;20217;-78
2023/05/17 11:09:23;;;;;;;12.02;6.47;;;;;;;21.58;66.05;64233.72;5049348;28;20264;-79
2023/05/17 11:12:08;;;;;;;8.50;6.45;;;;;;;21.71;65.84;64244.72;5048205;28;20237;-78
2023/05/17 11:14:51;;;;;;;6.97;5.55;;;;;;;21.87;64.56;64263.50;5048828;28;20435;-79
2023/05/17 11:17:21;;;;;;;10.73;5.85;;;;;;;21.67;64.76;64243.13;5049627;28;20425;-78
2023/05/17 11:20:04;;;;;;;8.90;5.70;;;;;;;21.65;62.77;64235.84;5047432;28;20198;-79
2023/05/17 11:22:37;;;;;;;9.68;5.65;;;;;;;22.01;61.65;64275.03;5048104;28;20252;-79
2023/05/17 11:25:10;;;;;;;10.70;5.80;;;;;;;21.61;65.30;64231.69;5052100;28;20231;-78
2023/05/17 11:27:40;;;;;;;10.25;7.03;;;;;;;21.55;67.16;64230.56;5049287;28;20266;-79
2023/05/17 11:30:18;;;;;;;12.68;7.50;;;;;;;21.66;69.28;64241.56;5047780;28;20244;-78
2023/05/17 11:32:51;;;;;;;12.70;7.32;;;;;;;21.78;66.97;64254.63;5047454;28;20244;-79